Virden, Canada
Current Conditions -  °F | °C
As of 11:00 AM on Friday 28 Nov 2014 (Local Time) from CYBR Reporting Station
Light Snow Light Snow  
Wind Chill: -14°   Ceiling: 4900
Heat Index:   Visibility: 3mi
Dew Point:   Wind: 22mph
Humidity: 79%   Direction: 80°E
Pressure: 29.87"   Gusts: NA
Location:  49.84°N, 100.93°W
Report Text: CYBR 281700Z 08019KT 3SM -SN DRSN FEW007 OVC049 M14/M17 A2987 RMK SF1SC8 SF TR PRESFR SLP153
Loading
Personal Weather Stations






























Interactive Weather Map New forecast layout! Learn more

10-Day Weather Forecast

Advertisements
Track Severe Weather on mobile